Time,TemperatureF,DewpointF,PressureIn,WindDirection,WindDirectionDegrees,WindSpeedMPH,WindSpeedGustMPH,Humidity,HourlyPrecipIn,Conditions,Clouds,dailyrainin,SolarRadiationWatts/m^2,SoftwareType,DateUTC
2013-07-20 00:11:00,77.0,68.0,29.71,South,175,0.0,0.0,74,0.00,,,0.00,0,weatherlink.com 1.10,2013-07-20 04:11:00,
2013-07-20 00:26:00,76.5,69.0,29.71,SSE,160,0.0,0.0,77,0.00,,,0.00,0,weatherlink.com 1.10,2013-07-20 04:26:00,
2013-07-20 00:41:00,75.7,68.0,29.70,SSE,160,0.0,0.0,78,0.00,,,0.00,0,weatherlink.com 1.10,2013-07-20 04:41:00,
2013-07-20 00:56:00,74.8,69.0,29.70,SE,137,0.0,0.0,81,0.00,,,0.00,0,weatherlink.com 1.10,2013-07-20 04:56:00,
2013-07-20 01:11:00,73.9,69.0,29.70,SE,137,0.0,0.0,84,0.00,,,0.00,0,weatherlink.com 1.10,2013-07-20 05:11:00,
2013-07-20 01:26:00,72.6,69.0,29.70,SE,138,0.0,0.0,87,0.00,,,0.00,0,weatherlink.com 1.10,2013-07-20 05:26:00,
2013-07-20 01:41:00,71.8,68.0,29.70,SW,233,0.0,0.0,87,0.00,,,0.00,0,weatherlink.com 1.10,2013-07-20 05:41:00,
2013-07-20 01:56:00,71.4,68.0,29.69,SW,233,0.0,0.0,88,0.00,,,0.00,0,weatherlink.com 1.10,2013-07-20 05:56:00,
2013-07-20 02:12:00,71.2,68.0,29.69,SW,233,0.0,0.0,89,0.00,,,0.00,0,weatherlink.com 1.10,2013-07-20 06:12:00,
2013-07-20 02:26:00,70.9,68.0,29.68,NW,305,0.0,0.0,89,0.00,,,0.00,0,weatherlink.com 1.10,2013-07-20 06:26:00,
2013-07-20 02:41:00,70.6,68.0,29.68,NW,316,0.0,0.0,90,0.00,,,0.00,0,weatherlink.com 1.10,2013-07-20 06:41:00,
2013-07-20 02:56:00,70.2,68.0,29.68,NW,316,0.0,0.0,91,0.00,,,0.00,0,weatherlink.com 1.10,2013-07-20 06:56:00,
2013-07-20 03:26:00,69.6,67.0,29.68,WSW,246,0.0,0.0,92,0.00,,,0.00,0,weatherlink.com 1.10,2013-07-20 07:26:00,
2013-07-20 03:41:00,69.5,67.0,29.68,WSW,246,0.0,0.0,92,0.00,,,0.00,0,weatherlink.com 1.10,2013-07-20 07:41:00,
2013-07-20 03:56:00,69.7,67.0,29.68,NE,37,0.0,0.0,91,0.00,,,0.00,0,weatherlink.com 1.10,2013-07-20 07:56:00,
2013-07-20 04:11:00,69.6,67.0,29.67,NE,37,0.0,0.0,92,0.00,,,0.00,0,weatherlink.com 1.10,2013-07-20 08:11:00,
2013-07-20 04:26:00,69.1,66.0,29.67,NE,37,0.0,0.0,91,0.00,,,0.00,0,weatherlink.com 1.10,2013-07-20 08:26:00,
2013-07-20 04:41:00,68.9,67.0,29.66,NE,37,0.0,0.0,92,0.00,,,0.00,0,weatherlink.com 1.10,2013-07-20 08:41:00,
2013-07-20 04:56:00,68.6,66.0,29.67,NE,37,0.0,0.0,92,0.00,,,0.00,0,weatherlink.com 1.10,2013-07-20 08:56:00,
2013-07-20 05:11:00,68.4,66.0,29.67,NE,37,0.0,0.0,93,0.00,,,0.00,0,weatherlink.com 1.10,2013-07-20 09:11:00,
2013-07-20 05:26:00,68.3,66.0,29.67,NE,37,0.0,0.0,93,0.00,,,0.00,0,weatherlink.com 1.10,2013-07-20 09:26:00,
2013-07-20 05:41:00,68.1,66.0,29.67,NE,37,0.0,0.0,94,0.00,,,0.00,9,weatherlink.com 1.10,2013-07-20 09:41:00,
2013-07-20 05:56:00,67.9,66.0,29.68,NE,37,0.0,0.0,94,0.00,,,0.00,21,weatherlink.com 1.10,2013-07-20 09:56:00,
2013-07-20 06:11:00,67.9,66.0,29.68,NE,37,0.0,0.0,94,0.00,,,0.00,28,weatherlink.com 1.10,2013-07-20 10:11:00,
2013-07-20 06:26:00,68.1,67.0,29.68,NE,37,0.0,0.0,95,0.00,,,0.00,47,weatherlink.com 1.10,2013-07-20 10:26:00,
2013-07-20 06:41:00,68.4,67.0,29.68,NE,37,0.0,0.0,95,0.00,,,0.00,88,weatherlink.com 1.10,2013-07-20 10:41:00,
2013-07-20 06:57:00,69.0,68.0,29.68,NE,37,0.0,0.0,95,0.00,,,0.00,81,weatherlink.com 1.10,2013-07-20 10:57:00,
2013-07-20 07:12:00,69.5,68.0,29.69,NE,37,0.0,0.0,95,0.00,,,0.00,49,weatherlink.com 1.10,2013-07-20 11:12:00,
2013-07-20 07:27:00,70.0,69.0,29.69,ENE,78,0.0,0.0,95,0.00,,,0.00,60,weatherlink.com 1.10,2013-07-20 11:27:00,
2013-07-20 07:42:00,70.2,69.0,29.69,NE,50,0.0,0.0,95,0.00,,,0.00,56,weatherlink.com 1.10,2013-07-20 11:42:00,
2013-07-20 07:57:00,70.4,69.0,29.70,NE,46,0.0,0.0,94,0.00,,,0.00,70,weatherlink.com 1.10,2013-07-20 11:57:00,
2013-07-20 08:12:00,70.7,69.0,29.70,NE,34,0.0,0.0,93,0.00,,,0.00,111,weatherlink.com 1.10,2013-07-20 12:12:00,
2013-07-20 08:27:00,71.3,69.0,29.70,NE,34,0.0,0.0,93,0.00,,,0.00,142,weatherlink.com 1.10,2013-07-20 12:27:00,
2013-07-20 08:42:00,71.7,69.0,29.69,NE,34,0.0,0.0,92,0.00,,,0.00,200,weatherlink.com 1.10,2013-07-20 12:42:00,
2013-07-20 08:57:00,72.7,70.0,29.68,NE,34,0.0,0.0,91,0.00,,,0.00,146,weatherlink.com 1.10,2013-07-20 12:57:00,
2013-07-20 09:12:00,74.7,72.0,29.68,NE,34,0.0,0.0,90,0.00,,,0.00,603,weatherlink.com 1.10,2013-07-20 13:12:00,
2013-07-20 09:28:00,78.5,73.0,29.67,NE,35,0.0,0.0,82,0.00,,,0.00,647,weatherlink.com 1.10,2013-07-20 13:28:00,
2013-07-20 09:42:00,80.9,73.0,29.67,South,190,0.0,0.0,76,0.00,,,0.00,657,weatherlink.com 1.10,2013-07-20 13:42:00,
2013-07-20 09:57:00,82.8,73.0,29.66,SSW,209,0.0,0.0,72,0.00,,,0.00,677,weatherlink.com 1.10,2013-07-20 13:57:00,
2013-07-20 10:12:00,83.9,72.0,29.66,South,175,0.0,6.0,68,0.00,,,0.00,784,weatherlink.com 1.10,2013-07-20 14:12:00,
2013-07-20 10:27:00,85.2,74.0,29.66,SW,218,0.0,0.0,68,0.00,,,0.00,464,weatherlink.com 1.10,2013-07-20 14:27:00,
2013-07-20 10:42:00,85.2,72.0,29.66,SSE,165,0.0,0.0,64,0.00,,,0.00,450,weatherlink.com 1.10,2013-07-20 14:42:00,
2013-07-20 10:57:00,85.7,73.0,29.66,SSE,161,0.0,0.0,65,0.00,,,0.00,696,weatherlink.com 1.10,2013-07-20 14:57:00,
2013-07-20 11:12:00,86.8,74.0,29.66,SSE,160,0.0,0.0,66,0.00,,,0.00,766,weatherlink.com 1.10,2013-07-20 15:12:00,
2013-07-20 11:27:00,87.7,72.0,29.66,NW,325,0.0,0.0,60,0.00,,,0.00,898,weatherlink.com 1.10,2013-07-20 15:27:00,
2013-07-20 11:42:00,88.6,73.0,29.66,North,355,0.0,0.0,61,0.00,,,0.00,287,weatherlink.com 1.10,2013-07-20 15:42:00,
2013-07-20 11:57:00,87.8,73.0,29.65,SW,232,0.0,0.0,61,0.00,,,0.00,371,weatherlink.com 1.10,2013-07-20 15:57:00,
2013-07-20 12:12:00,87.3,72.0,29.65,SW,232,0.0,0.0,61,0.00,,,0.00,359,weatherlink.com 1.10,2013-07-20 16:12:00,
2013-07-20 12:27:00,86.7,73.0,29.65,West,277,0.0,0.0,63,0.00,,,0.00,476,weatherlink.com 1.10,2013-07-20 16:27:00,
2013-07-20 12:42:00,86.6,72.0,29.65,NW,310,0.0,0.0,63,0.00,,,0.00,316,weatherlink.com 1.10,2013-07-20 16:42:00,
2013-07-20 12:57:00,86.3,73.0,29.66,West,265,0.0,0.0,65,0.00,,,0.00,376,weatherlink.com 1.10,2013-07-20 16:57:00,
2013-07-20 13:12:00,86.1,72.0,29.65,SE,143,0.0,0.0,63,0.00,,,0.00,420,weatherlink.com 1.10,2013-07-20 17:12:00,
2013-07-20 13:27:00,86.5,73.0,29.64,SSW,211,0.0,0.0,65,0.00,,,0.00,490,weatherlink.com 1.10,2013-07-20 17:27:00,
2013-07-20 13:42:00,86.6,72.0,29.64,West,268,0.0,0.0,62,0.00,,,0.00,663,weatherlink.com 1.10,2013-07-20 17:42:00,
2013-07-20 13:57:00,86.9,72.0,29.64,SW,223,0.0,0.0,62,0.00,,,0.00,540,weatherlink.com 1.10,2013-07-20 17:57:00,
2013-07-20 14:12:00,87.1,71.0,29.64,WSW,237,0.0,0.0,60,0.00,,,0.00,1032,weatherlink.com 1.10,2013-07-20 18:12:00,
2013-07-20 14:27:00,87.5,72.0,29.63,SSW,195,0.0,0.0,60,0.00,,,0.00,664,weatherlink.com 1.10,2013-07-20 18:27:00,
2013-07-20 14:42:00,87.0,72.0,29.64,WSW,252,0.0,0.0,61,0.00,,,0.00,350,weatherlink.com 1.10,2013-07-20 18:42:00,
2013-07-20 14:57:00,86.6,72.0,29.64,WSW,248,0.0,0.0,62,0.00,,,0.00,420,weatherlink.com 1.10,2013-07-20 18:57:00,
2013-07-20 15:12:00,86.8,71.0,29.64,NNW,336,0.0,0.0,60,0.00,,,0.00,325,weatherlink.com 1.10,2013-07-20 19:12:00,
2013-07-20 15:27:00,87.6,70.0,29.63,NW,306,0.0,0.0,57,0.00,,,0.00,288,weatherlink.com 1.10,2013-07-20 19:27:00,
2013-07-20 15:42:00,87.5,71.0,29.63,West,261,0.0,0.0,59,0.00,,,0.00,281,weatherlink.com 1.10,2013-07-20 19:42:00,
2013-07-20 16:12:00,86.9,70.0,29.63,West,272,0.0,0.0,58,0.00,,,0.00,476,weatherlink.com 1.10,2013-07-20 20:12:00,
2013-07-20 16:27:00,88.0,71.0,29.63,West,272,0.0,0.0,57,0.00,,,0.00,545,weatherlink.com 1.10,2013-07-20 20:27:00,
2013-07-20 16:43:00,87.1,69.0,29.64,West,261,0.0,0.0,56,0.00,,,0.00,225,weatherlink.com 1.10,2013-07-20 20:43:00,
2013-07-20 16:57:00,86.0,68.0,29.65,WSW,238,0.0,0.0,56,0.00,,,0.00,63,weatherlink.com 1.10,2013-07-20 20:57:00,
2013-07-20 17:12:00,84.8,69.0,29.65,WSW,241,0.0,0.0,59,0.00,,,0.00,105,weatherlink.com 1.10,2013-07-20 21:12:00,
2013-07-20 17:27:00,84.0,70.0,29.66,North,355,0.0,0.0,63,0.00,,,0.00,113,weatherlink.com 1.10,2013-07-20 21:27:00,
2013-07-20 18:12:00,82.6,71.0,29.68,NNE,15,0.0,0.0,68,0.00,,,0.00,130,weatherlink.com 1.10,2013-07-20 22:12:00,
2013-07-20 18:27:00,81.8,69.0,29.69,North,10,0.0,0.0,66,0.00,,,0.00,39,weatherlink.com 1.10,2013-07-20 22:27:00,
2013-07-20 18:42:00,81.1,70.0,29.69,NW,317,0.0,0.0,70,0.00,,,0.00,28,weatherlink.com 1.10,2013-07-20 22:42:00,
2013-07-20 18:57:00,80.1,66.0,29.69,WNW,297,0.0,0.0,63,0.00,,,0.00,44,weatherlink.com 1.10,2013-07-20 22:57:00,
2013-07-20 19:12:00,79.7,65.0,29.68,WSW,252,0.0,0.0,62,0.00,,,0.00,118,weatherlink.com 1.10,2013-07-20 23:12:00,
2013-07-20 19:27:00,79.8,66.0,29.69,WSW,252,0.0,0.0,63,0.00,,,0.00,47,weatherlink.com 1.10,2013-07-20 23:27:00,
2013-07-20 19:42:00,78.9,67.0,29.70,SW,233,0.0,0.0,66,0.00,,,0.00,28,weatherlink.com 1.10,2013-07-20 23:42:00,
2013-07-20 19:57:00,77.8,67.0,29.70,SSW,209,0.0,0.0,69,0.00,,,0.00,19,weatherlink.com 1.10,2013-07-20 23:57:00,
2013-07-20 20:12:00,76.5,66.0,29.71,SSW,209,0.0,0.0,71,0.00,,,0.00,9,weatherlink.com 1.10,2013-07-21 00:12:00,
2013-07-20 20:27:00,75.3,67.0,29.71,SSW,209,0.0,0.0,74,0.00,,,0.00,5,weatherlink.com 1.10,2013-07-21 00:27:00,
2013-07-20 20:43:00,73.8,67.0,29.71,SSW,209,0.0,0.0,78,0.00,,,0.00,0,weatherlink.com 1.10,2013-07-21 00:43:00,
2013-07-20 20:57:00,72.7,66.0,29.73,SSW,209,0.0,0.0,79,0.00,,,0.00,0,weatherlink.com 1.10,2013-07-21 00:57:00,
2013-07-20 21:13:00,71.9,66.0,29.73,SSW,209,0.0,0.0,81,0.00,,,0.00,0,weatherlink.com 1.10,2013-07-21 01:13:00,
2013-07-20 21:28:00,71.3,66.0,29.74,SSW,209,0.0,0.0,83,0.00,,,0.00,0,weatherlink.com 1.10,2013-07-21 01:28:00,
2013-07-20 21:43:00,70.5,66.0,29.74,SSW,209,0.0,0.0,84,0.00,,,0.00,0,weatherlink.com 1.10,2013-07-21 01:43:00,
2013-07-20 22:13:00,69.3,65.0,29.75,SSW,209,0.0,0.0,86,0.00,,,0.00,0,weatherlink.com 1.10,2013-07-21 02:13:00,
2013-07-20 22:28:00,68.5,65.0,29.75,SSW,209,0.0,0.0,87,0.00,,,0.00,0,weatherlink.com 1.10,2013-07-21 02:28:00,
2013-07-20 22:43:00,68.1,65.0,29.76,SSW,209,0.0,0.0,88,0.00,,,0.00,0,weatherlink.com 1.10,2013-07-21 02:43:00,
2013-07-20 22:58:00,67.6,64.0,29.76,SSW,209,0.0,0.0,89,0.00,,,0.00,0,weatherlink.com 1.10,2013-07-21 02:58:00,
2013-07-20 23:13:00,67.2,64.0,29.77,SSW,209,0.0,0.0,89,0.00,,,0.00,0,weatherlink.com 1.10,2013-07-21 03:13:00,